createdAt,value
2017-12-13T00:00:43.959Z,6.30
2017-12-13T00:01:48.287Z,7.15
2017-12-13T00:02:53.217Z,6.12
2017-12-13T00:03:57.346Z,6.53
2017-12-13T00:05:01.824Z,6.47
2017-12-13T00:06:06.761Z,7.53
2017-12-13T00:07:10.871Z,6.95
2017-12-13T00:08:14.994Z,6.90
2017-12-13T00:09:19.107Z,6.60
2017-12-13T00:10:23.125Z,6.53
2017-12-13T00:11:27.501Z,7.00
2017-12-13T00:12:31.608Z,6.20
2017-12-13T00:13:35.717Z,6.75
2017-12-13T00:14:39.989Z,7.07
2017-12-13T00:15:44.136Z,6.95
2017-12-13T00:16:48.302Z,6.45
2017-12-13T00:17:52.437Z,7.60
2017-12-13T00:18:57.057Z,7.35
2017-12-13T00:20:01.113Z,7.00
2017-12-13T00:21:05.839Z,7.35
2017-12-13T00:22:12.962Z,7.20
2017-12-13T00:23:17.519Z,7.10
2017-12-13T00:24:21.744Z,6.20
2017-12-13T00:25:26.040Z,7.15
2017-12-13T00:26:30.513Z,7.18
2017-12-13T00:27:35.220Z,7.30
2017-12-13T00:28:40.850Z,6.53
2017-12-13T00:29:45.114Z,6.82
2017-12-13T00:30:49.402Z,6.85
2017-12-13T00:31:53.600Z,7.03
2017-12-13T00:32:58.576Z,7.15
2017-12-13T00:34:03.218Z,7.50
2017-12-13T00:35:08.295Z,7.45
2017-12-13T00:36:12.667Z,7.20
2017-12-13T00:37:17.722Z,7.15
2017-12-13T00:38:21.939Z,7.20
2017-12-13T00:39:26.446Z,7.70
2017-12-13T00:40:30.990Z,7.70
2017-12-13T00:41:35.189Z,7.28
2017-12-13T00:42:39.397Z,7.70
2017-12-13T00:43:43.699Z,8.00
2017-12-13T00:44:47.952Z,8.47
2017-12-13T00:45:52.157Z,11.40
2017-12-13T00:46:56.451Z,10.10
2017-12-13T00:48:01.039Z,14.02
2017-12-13T00:49:05.230Z,11.27
2017-12-13T00:50:09.464Z,9.68
2017-12-13T00:51:13.683Z,8.98
2017-12-13T00:52:19.124Z,8.68
2017-12-13T00:53:24.070Z,8.80
2017-12-13T00:54:28.272Z,8.80
2017-12-13T00:55:32.591Z,7.80
2017-12-13T00:56:37.793Z,7.82
2017-12-13T00:57:42.482Z,7.85
2017-12-13T00:58:47.071Z,7.85
2017-12-13T00:59:51.236Z,8.05
2017-12-13T01:00:55.312Z,27.45
2017-12-13T01:02:00.156Z,15.55
2017-12-13T01:03:04.148Z,9.65
2017-12-13T01:04:08.582Z,8.55
2017-12-13T01:05:12.641Z,8.30
2017-12-13T01:06:17.455Z,7.82
2017-12-13T01:07:22.406Z,8.15
2017-12-13T01:08:26.566Z,8.70
2017-12-13T01:09:30.858Z,8.40
2017-12-13T01:10:35.564Z,7.35
2017-12-13T01:11:39.873Z,7.78
2017-12-13T01:12:44.065Z,7.97
2017-12-13T01:13:48.277Z,8.30
2017-12-13T01:14:52.391Z,9.02
2017-12-13T01:15:56.630Z,8.50
2017-12-13T01:17:01.139Z,8.30
2017-12-13T01:18:05.266Z,7.97
2017-12-13T01:19:09.382Z,9.45
2017-12-13T01:21:17.171Z,9.10
2017-12-13T01:22:21.926Z,9.15
2017-12-13T01:23:26.153Z,8.43
2017-12-13T01:24:30.736Z,8.32
2017-12-13T01:25:35.312Z,8.40
2017-12-13T01:26:39.544Z,7.45
2017-12-13T01:27:43.986Z,7.00
2017-12-13T01:28:48.404Z,7.93
2017-12-13T01:29:52.602Z,8.13
2017-12-13T01:30:56.750Z,7.20
2017-12-13T01:32:00.965Z,7.40
2017-12-13T01:33:05.070Z,7.90
2017-12-13T01:34:09.435Z,7.80
2017-12-13T01:35:14.459Z,7.47
2017-12-13T01:36:19.449Z,7.40
2017-12-13T01:37:23.614Z,6.87
2017-12-13T01:38:28.090Z,7.70
2017-12-13T01:39:32.665Z,7.30
2017-12-13T01:40:38.969Z,7.80
2017-12-13T01:41:44.258Z,8.05
2017-12-13T01:42:48.574Z,8.30
2017-12-13T01:43:52.843Z,8.38
2017-12-13T01:44:57.121Z,7.53
2017-12-13T01:46:01.965Z,8.07
2017-12-13T01:47:06.387Z,7.20
2017-12-13T01:48:10.560Z,6.30
2017-12-13T01:49:15.531Z,7.40
2017-12-13T01:50:19.996Z,6.82
2017-12-13T01:51:24.334Z,6.45
2017-12-13T01:52:28.443Z,6.60
2017-12-13T01:53:32.567Z,6.68
2017-12-13T01:54:36.860Z,6.18
2017-12-13T01:55:40.955Z,6.72
2017-12-13T01:56:44.948Z,5.97
2017-12-13T01:57:49.356Z,6.10
2017-12-13T01:58:53.653Z,6.43
2017-12-13T01:59:57.935Z,6.00
2017-12-13T02:01:02.906Z,7.20
2017-12-13T02:02:06.998Z,6.00
2017-12-13T02:03:11.525Z,6.90
2017-12-13T02:04:15.631Z,7.30
2017-12-13T02:05:20.139Z,6.75
2017-12-13T02:06:24.573Z,7.50
2017-12-13T02:07:28.671Z,8.00
2017-12-13T02:08:33.109Z,8.40
2017-12-13T02:09:38.012Z,17.67
2017-12-13T02:10:42.148Z,11.65
2017-12-13T02:11:46.483Z,10.88
2017-12-13T02:12:50.735Z,8.85
2017-12-13T02:13:55.786Z,8.40
2017-12-13T02:15:00.085Z,8.30
2017-12-13T02:16:04.350Z,7.53
2017-12-13T02:17:09.366Z,8.25
2017-12-13T02:18:13.612Z,7.78
2017-12-13T02:19:18.695Z,6.62
2017-12-13T02:20:23.074Z,7.37
2017-12-13T02:21:27.727Z,6.70
2017-12-13T02:22:32.124Z,6.62
2017-12-13T02:23:36.681Z,6.75
2017-12-13T02:24:41.758Z,6.85
2017-12-13T02:25:46.128Z,6.10
2017-12-13T02:26:50.329Z,6.87
2017-12-13T02:27:54.604Z,6.75
2017-12-13T02:28:58.792Z,6.12
2017-12-13T02:30:03.048Z,6.82
2017-12-13T02:31:08.760Z,6.20
2017-12-13T02:32:13.310Z,6.78
2017-12-13T02:33:17.430Z,7.50
2017-12-13T02:34:21.856Z,6.90
2017-12-13T02:35:25.992Z,7.10
2017-12-13T02:36:30.632Z,7.03
2017-12-13T02:37:34.914Z,7.50
2017-12-13T02:38:39.960Z,6.78
2017-12-13T02:39:44.817Z,6.62
2017-12-13T02:41:06.026Z,7.60
2017-12-13T02:42:10.546Z,7.23
2017-12-13T02:43:14.852Z,6.70
2017-12-13T02:44:19.533Z,7.30
2017-12-13T02:45:23.663Z,7.80
2017-12-13T02:46:27.701Z,7.90
2017-12-13T02:47:33.081Z,7.47
2017-12-13T02:48:37.946Z,7.55
2017-12-13T02:49:43.194Z,7.40
2017-12-13T02:50:48.271Z,7.62
2017-12-13T02:51:52.285Z,7.60
2017-12-13T02:52:56.302Z,7.50
2017-12-13T02:54:00.398Z,7.20
2017-12-13T02:55:04.454Z,7.35
2017-12-13T02:56:08.658Z,6.95
2017-12-13T02:57:13.538Z,7.60
2017-12-13T02:58:18.390Z,6.60
2017-12-13T02:59:22.723Z,7.20
2017-12-13T03:00:26.756Z,7.37
2017-12-13T03:01:31.805Z,7.07
2017-12-13T03:02:36.878Z,6.87
2017-12-13T03:03:40.913Z,7.55
2017-12-13T03:04:44.967Z,7.20
2017-12-13T03:05:49.613Z,7.07
2017-12-13T03:06:53.814Z,6.70
2017-12-13T03:07:58.107Z,6.50
2017-12-13T03:09:02.342Z,7.37
2017-12-13T03:10:06.620Z,6.68
2017-12-13T03:11:11.315Z,6.55
2017-12-13T03:12:15.775Z,6.80
2017-12-13T03:13:20.798Z,6.20
2017-12-13T03:14:24.965Z,6.90
2017-12-13T03:15:29.379Z,6.47
2017-12-13T03:16:33.540Z,6.50
2017-12-13T03:17:37.642Z,6.30
2017-12-13T03:18:42.224Z,6.40
2017-12-13T03:19:46.218Z,6.30
2017-12-13T03:20:50.859Z,6.17
2017-12-13T03:21:55.989Z,6.62
2017-12-13T03:23:01.005Z,6.78
2017-12-13T03:24:06.485Z,6.30
2017-12-13T03:25:11.020Z,6.97
2017-12-13T03:26:15.348Z,6.10
2017-12-13T03:27:19.565Z,6.25
2017-12-13T03:28:24.509Z,6.78
2017-12-13T03:29:28.982Z,6.53
2017-12-13T03:30:33.157Z,6.35
2017-12-13T03:31:37.252Z,6.30
2017-12-13T03:34:10.861Z,6.62
2017-12-13T03:35:14.898Z,6.03
2017-12-13T03:36:19.478Z,6.07
2017-12-13T03:37:23.578Z,6.32
2017-12-13T03:38:27.794Z,6.95
2017-12-13T03:39:31.806Z,6.60
2017-12-13T03:40:36.221Z,6.50
2017-12-13T03:41:40.289Z,5.97
2017-12-13T03:42:44.447Z,6.65
2017-12-13T03:43:48.521Z,6.18
2017-12-13T03:44:53.121Z,6.50
2017-12-13T03:45:57.323Z,6.30
2017-12-13T03:47:01.458Z,6.65
2017-12-13T03:48:05.830Z,6.45
2017-12-13T03:49:09.922Z,5.82
2017-12-13T03:50:14.841Z,6.00
2017-12-13T03:51:18.938Z,5.82
2017-12-13T03:52:23.265Z,5.50
2017-12-13T03:53:27.367Z,6.15
2017-12-13T03:54:31.997Z,5.40
2017-12-13T03:55:37.411Z,6.20
2017-12-13T03:56:41.594Z,5.10
2017-12-13T03:57:45.721Z,5.50
2017-12-13T03:58:50.119Z,5.80
2017-12-13T03:59:55.148Z,5.47
2017-12-13T04:00:59.365Z,5.68
2017-12-13T04:02:03.678Z,5.70
2017-12-13T04:03:08.101Z,7.55
2017-12-13T04:04:12.473Z,7.87
2017-12-13T04:05:16.835Z,9.90
2017-12-13T04:06:22.924Z,6.68
2017-12-13T04:07:27.289Z,6.28
2017-12-13T04:08:32.565Z,6.30
2017-12-13T04:09:36.899Z,6.55
2017-12-13T04:10:40.894Z,7.45
2017-12-13T04:11:44.960Z,6.80
2017-12-13T04:12:48.948Z,6.85
2017-12-13T04:13:53.701Z,6.40
2017-12-13T04:14:57.745Z,7.00
2017-12-13T04:16:02.046Z,6.90
2017-12-13T04:17:06.631Z,7.25
2017-12-13T04:18:11.544Z,6.90
2017-12-13T04:19:15.610Z,6.80
2017-12-13T04:20:19.692Z,6.80
2017-12-13T04:21:24.254Z,6.25
2017-12-13T04:22:28.436Z,5.87
2017-12-13T04:23:32.532Z,5.95
2017-12-13T04:24:36.851Z,5.40
2017-12-13T04:25:41.666Z,5.78
2017-12-13T04:26:45.673Z,6.30
2017-12-13T04:27:50.179Z,6.25
2017-12-13T04:28:54.370Z,5.80
2017-12-13T04:29:58.446Z,6.10
2017-12-13T04:31:02.787Z,5.32
2017-12-13T04:32:06.791Z,5.10
2017-12-13T04:33:10.950Z,5.68
2017-12-13T04:34:15.923Z,5.25
2017-12-13T04:35:20.242Z,5.57
2017-12-13T04:36:24.758Z,5.40
2017-12-13T04:37:28.873Z,5.10
2017-12-13T04:38:32.863Z,5.70
2017-12-13T04:39:37.222Z,5.20
2017-12-13T04:40:42.015Z,5.12
2017-12-13T04:41:46.091Z,5.47
2017-12-13T04:42:50.609Z,5.50
2017-12-13T04:43:55.146Z,5.62
2017-12-13T04:44:59.389Z,5.43
2017-12-13T04:46:03.543Z,6.20
2017-12-13T04:47:08.251Z,5.65
2017-12-13T04:48:12.742Z,5.90
2017-12-13T04:49:16.869Z,5.45
2017-12-13T04:50:21.362Z,6.30
2017-12-13T04:51:25.610Z,6.00
2017-12-13T04:52:30.466Z,5.82
2017-12-13T04:53:35.412Z,5.55
2017-12-13T04:54:40.055Z,5.70
2017-12-13T04:55:44.174Z,6.57
2017-12-13T04:56:48.363Z,5.28
2017-12-13T04:57:53.541Z,5.70
2017-12-13T04:58:58.694Z,5.30
2017-12-13T05:00:03.196Z,5.45
2017-12-13T05:01:07.767Z,5.90
2017-12-13T05:02:12.745Z,5.43
2017-12-13T05:03:16.704Z,5.07
2017-12-13T05:04:20.726Z,5.60
2017-12-13T05:06:41.892Z,5.43
2017-12-13T05:07:46.046Z,5.68
2017-12-13T05:08:50.083Z,5.35
2017-12-13T05:09:54.218Z,5.22
2017-12-13T05:10:58.358Z,5.50
2017-12-13T05:12:02.844Z,5.15
2017-12-13T05:13:08.781Z,5.70
2017-12-13T05:14:12.939Z,5.50
2017-12-13T05:15:17.299Z,5.97
2017-12-13T05:16:21.903Z,5.40
2017-12-13T05:17:26.109Z,5.70
2017-12-13T05:18:30.278Z,5.20
2017-12-13T05:19:34.725Z,6.10
2017-12-13T05:20:38.924Z,5.90
2017-12-13T05:21:43.106Z,5.20
2017-12-13T05:22:47.925Z,5.68
2017-12-13T05:23:52.746Z,5.50
2017-12-13T05:24:57.543Z,6.20
2017-12-13T05:26:01.578Z,6.10
2017-12-13T05:27:05.646Z,5.72
2017-12-13T05:28:10.458Z,5.90
2017-12-13T05:29:14.847Z,5.32
2017-12-13T05:30:19.356Z,5.60
2017-12-13T05:31:23.592Z,5.68
2017-12-13T05:32:27.757Z,5.30
2017-12-13T05:33:31.910Z,6.55
2017-12-13T05:34:36.843Z,6.15
2017-12-13T05:35:41.876Z,5.75
2017-12-13T05:36:46.075Z,5.62
2017-12-13T05:37:50.993Z,5.12
2017-12-13T05:38:56.255Z,5.55
2017-12-13T05:40:00.997Z,5.20
2017-12-13T05:41:05.583Z,5.72
2017-12-13T05:42:09.919Z,5.65
2017-12-13T05:43:14.228Z,6.10
2017-12-13T05:44:18.967Z,6.78
2017-12-13T05:45:23.201Z,6.32
2017-12-13T05:46:28.194Z,6.60
2017-12-13T05:47:32.582Z,6.35
2017-12-13T05:48:36.614Z,5.50
2017-12-13T05:49:40.754Z,5.82
2017-12-13T05:50:45.070Z,5.40
2017-12-13T05:51:49.399Z,5.70
2017-12-13T05:52:53.566Z,4.85
2017-12-13T05:53:57.809Z,5.40
2017-12-13T05:55:02.011Z,4.80
2017-12-13T05:56:06.155Z,5.10
2017-12-13T05:57:11.118Z,5.22
2017-12-13T05:58:15.402Z,4.70
2017-12-13T05:59:19.651Z,5.00
2017-12-13T06:00:26.289Z,5.03
2017-12-13T06:01:30.798Z,4.80
2017-12-13T06:02:35.170Z,5.10
2017-12-13T06:03:40.207Z,5.40
2017-12-13T06:04:45.114Z,5.57
2017-12-13T06:05:50.158Z,9.77
2017-12-13T06:06:55.077Z,8.52
2017-12-13T06:08:00.379Z,7.20
2017-12-13T06:09:04.940Z,5.50
2017-12-13T06:10:11.266Z,5.10
2017-12-13T06:11:16.293Z,4.85
2017-12-13T06:12:20.556Z,4.97
2017-12-13T06:13:24.772Z,5.05
2017-12-13T06:14:28.966Z,5.53
2017-12-13T06:15:33.129Z,4.82
2017-12-13T06:16:37.305Z,5.37
2017-12-13T06:17:42.585Z,5.50
2017-12-13T06:18:46.739Z,5.32
2017-12-13T06:19:51.647Z,5.70
2017-12-13T06:20:55.810Z,5.85
2017-12-13T06:22:00.026Z,5.32
2017-12-13T06:23:04.242Z,5.40
2017-12-13T06:24:08.482Z,5.40
2017-12-13T06:25:13.389Z,5.35
2017-12-13T06:26:17.578Z,4.90
2017-12-13T06:27:21.853Z,4.90
2017-12-13T06:28:25.876Z,5.25
2017-12-13T06:29:29.943Z,5.20
2017-12-13T06:30:34.516Z,14.30
2017-12-13T06:31:38.575Z,12.63
2017-12-13T06:32:42.596Z,5.97
2017-12-13T06:33:46.637Z,5.40
2017-12-13T06:34:50.903Z,5.00
2017-12-13T06:35:54.952Z,4.53
2017-12-13T06:36:59.914Z,4.43
2017-12-13T06:38:04.109Z,4.60
2017-12-13T06:39:08.306Z,4.60
2017-12-13T06:40:12.494Z,4.22
2017-12-13T06:41:16.716Z,4.80
2017-12-13T06:42:20.897Z,4.32
2017-12-13T06:43:25.145Z,4.20
2017-12-13T06:44:29.299Z,4.12
2017-12-13T06:45:34.258Z,6.95
2017-12-13T06:46:38.525Z,17.52
2017-12-13T06:47:43.448Z,5.20
2017-12-13T06:48:48.462Z,3.70
2017-12-13T06:49:53.700Z,3.45
2017-12-13T06:51:00.080Z,4.10
2017-12-13T06:52:04.167Z,3.55
2017-12-13T06:53:08.248Z,4.18
2017-12-13T06:54:13.023Z,3.78
2017-12-13T06:55:17.086Z,3.90
2017-12-13T06:56:22.283Z,4.10
2017-12-13T06:57:26.317Z,4.30
2017-12-13T06:58:30.363Z,3.60
2017-12-13T06:59:34.343Z,3.40
2017-12-13T07:00:38.348Z,3.35
2017-12-13T07:01:42.472Z,3.92
2017-12-13T07:02:46.483Z,3.70
2017-12-13T07:03:50.468Z,3.65
2017-12-13T07:04:54.422Z,3.47
2017-12-13T07:05:58.468Z,3.22
2017-12-13T07:07:02.578Z,2.97
2017-12-13T07:08:06.841Z,3.47
2017-12-13T07:09:10.967Z,3.40
2017-12-13T07:10:15.044Z,3.08
2017-12-13T07:11:19.085Z,3.30
2017-12-13T07:12:23.145Z,7.60
2017-12-13T07:13:27.173Z,10.10
2017-12-13T07:14:31.437Z,4.00
2017-12-13T07:15:35.457Z,2.87
2017-12-13T07:16:39.446Z,2.83
2017-12-13T07:17:45.170Z,2.50
2017-12-13T07:19:09.944Z,3.00
2017-12-13T07:20:15.438Z,3.37
2017-12-13T07:21:19.582Z,2.70
2017-12-13T07:22:24.519Z,3.17
2017-12-13T07:23:29.540Z,3.00
2017-12-13T07:24:34.494Z,3.22
2017-12-13T07:25:38.665Z,3.42
2017-12-13T07:26:43.685Z,3.28
2017-12-13T07:27:48.466Z,2.50
2017-12-13T07:28:54.902Z,2.87
2017-12-13T07:30:01.069Z,3.03
2017-12-13T07:31:05.154Z,2.37
2017-12-13T07:32:09.154Z,3.20
2017-12-13T07:33:13.449Z,3.05
2017-12-13T07:34:17.419Z,2.80
2017-12-13T07:35:22.312Z,3.05
2017-12-13T07:36:26.557Z,3.10
2017-12-13T07:37:31.541Z,2.60
2017-12-13T07:38:36.282Z,2.30
2017-12-13T07:39:41.089Z,2.80
2017-12-13T07:40:45.070Z,3.00
2017-12-13T07:41:49.069Z,2.83
2017-12-13T07:42:53.089Z,2.60
2017-12-13T07:43:57.151Z,3.00
2017-12-13T07:45:01.203Z,2.72
2017-12-13T07:46:05.941Z,3.05
2017-12-13T07:47:09.979Z,2.47
2017-12-13T07:48:13.974Z,2.50
2017-12-13T07:49:18.124Z,2.58
2017-12-13T07:50:22.841Z,2.70
2017-12-13T07:51:27.880Z,2.90
2017-12-13T07:52:32.694Z,2.60
2017-12-13T07:53:37.596Z,2.60
2017-12-13T07:54:42.453Z,2.50
2017-12-13T07:55:46.393Z,3.00
2017-12-13T07:56:50.416Z,2.90
2017-12-13T07:57:54.741Z,2.55
2017-12-13T07:58:59.490Z,2.15
2017-12-13T08:00:03.556Z,2.47
2017-12-13T08:01:08.309Z,2.90
2017-12-13T08:02:12.446Z,2.78
2017-12-13T08:03:16.438Z,2.45
2017-12-13T08:04:21.035Z,3.00
2017-12-13T08:05:25.280Z,2.50
2017-12-13T08:06:29.472Z,2.17
2017-12-13T08:07:33.588Z,2.55
2017-12-13T08:08:37.643Z,2.05
2017-12-13T08:09:41.606Z,2.40
2017-12-13T08:10:46.571Z,2.40
2017-12-13T08:11:50.769Z,2.33
2017-12-13T08:12:55.005Z,2.00
2017-12-13T08:13:59.949Z,2.00
2017-12-13T08:15:04.249Z,3.08
2017-12-13T08:16:08.672Z,2.60
2017-12-13T08:17:13.646Z,2.85
2017-12-13T08:18:17.857Z,2.60
2017-12-13T08:19:22.004Z,2.70
2017-12-13T08:20:26.984Z,2.45
2017-12-13T08:21:31.114Z,2.85
2017-12-13T08:22:35.558Z,2.55
2017-12-13T08:23:39.709Z,2.50
2017-12-13T08:24:43.951Z,3.03
2017-12-13T08:25:49.025Z,2.28
2017-12-13T08:26:53.193Z,2.70
2017-12-13T08:27:57.439Z,2.60
2017-12-13T08:29:01.622Z,3.00
2017-12-13T08:30:05.660Z,2.50
2017-12-13T08:31:09.827Z,2.10
2017-12-13T08:32:13.882Z,3.40
2017-12-13T08:33:17.885Z,2.75
2017-12-13T08:34:22.714Z,2.30
2017-12-13T08:35:27.519Z,2.50
2017-12-13T08:36:32.330Z,2.55
2017-12-13T08:37:36.305Z,2.60
2017-12-13T08:38:40.301Z,2.50
2017-12-13T08:39:44.464Z,2.30
2017-12-13T08:40:49.442Z,2.28
2017-12-13T08:41:54.155Z,2.67
2017-12-13T08:42:58.483Z,2.50
2017-12-13T08:44:02.887Z,2.60
2017-12-13T08:45:07.135Z,2.62
2017-12-13T08:46:11.398Z,1.90
2017-12-13T08:47:16.045Z,2.53
2017-12-13T08:48:21.174Z,2.50
2017-12-13T08:49:25.258Z,2.20
2017-12-13T08:50:30.151Z,2.40
2017-12-13T08:51:34.202Z,2.50
2017-12-13T08:52:38.398Z,2.47
2017-12-13T08:53:42.450Z,2.43
2017-12-13T08:54:46.622Z,2.10
2017-12-13T08:55:50.699Z,2.03
2017-12-13T08:56:55.599Z,2.90
2017-12-13T08:57:59.683Z,2.50
2017-12-13T08:59:03.811Z,2.40
2017-12-13T09:00:07.930Z,3.20
2017-12-13T09:01:12.691Z,2.45
2017-12-13T09:02:17.240Z,2.40
2017-12-13T09:03:21.294Z,2.70
2017-12-13T09:04:28.251Z,2.75
2017-12-13T09:05:33.166Z,2.50
2017-12-13T09:06:37.519Z,2.40
2017-12-13T09:07:41.859Z,2.45
2017-12-13T09:08:46.937Z,2.65
2017-12-13T09:09:51.107Z,2.50
2017-12-13T09:11:06.772Z,2.58
2017-12-13T09:12:22.897Z,2.45
2017-12-13T09:13:31.106Z,2.70
2017-12-13T09:14:45.247Z,3.28
2017-12-13T09:15:49.589Z,2.60
2017-12-13T09:16:55.290Z,2.90
2017-12-13T09:17:59.764Z,2.60
2017-12-13T09:19:03.938Z,2.62
2017-12-13T09:20:08.589Z,3.12
2017-12-13T09:21:14.631Z,2.80
2017-12-13T09:22:19.559Z,2.70
2017-12-13T09:23:26.164Z,2.47
2017-12-13T09:24:30.374Z,2.80
2017-12-13T09:25:35.105Z,2.75
2017-12-13T09:26:40.868Z,3.10
2017-12-13T09:27:45.060Z,2.83
2017-12-13T09:28:50.252Z,2.90
2017-12-13T09:29:54.467Z,2.50
2017-12-13T09:30:58.719Z,2.95
2017-12-13T09:32:02.932Z,2.30
2017-12-13T09:33:07.117Z,3.20
2017-12-13T09:34:11.439Z,2.85
2017-12-13T09:35:17.096Z,2.78
2017-12-13T09:36:22.039Z,2.60
2017-12-13T09:37:26.111Z,2.70
2017-12-13T09:38:30.163Z,3.17
2017-12-13T09:39:34.154Z,2.55
2017-12-13T09:40:38.193Z,2.85
2017-12-13T09:41:42.285Z,2.50
2017-12-13T09:42:47.173Z,3.20
2017-12-13T09:43:51.198Z,2.70
2017-12-13T09:44:56.058Z,4.57
2017-12-13T09:46:00.350Z,9.40
2017-12-13T09:47:04.882Z,4.62
2017-12-13T09:48:09.190Z,3.05
2017-12-13T09:49:14.014Z,2.95
2017-12-13T09:50:18.595Z,2.85
2017-12-13T09:51:22.977Z,3.70
2017-12-13T09:52:27.293Z,2.92
2017-12-13T09:53:32.869Z,2.78
2017-12-13T09:54:37.251Z,2.97
2017-12-13T09:55:42.708Z,3.20
2017-12-13T09:56:47.303Z,2.97
2017-12-13T09:57:51.839Z,3.20
2017-12-13T09:58:56.500Z,3.95
2017-12-13T10:00:00.766Z,4.15
2017-12-13T10:01:06.634Z,3.47
2017-12-13T10:03:39.452Z,3.10
2017-12-13T10:04:44.260Z,3.43
2017-12-13T10:05:50.548Z,3.87
2017-12-13T10:06:54.622Z,3.60
2017-12-13T10:07:59.441Z,4.10
2017-12-13T10:09:04.326Z,3.35
2017-12-13T10:10:08.349Z,3.90
2017-12-13T10:11:13.393Z,3.72
2017-12-13T10:12:18.246Z,3.50
2017-12-13T10:13:23.788Z,3.75
2017-12-13T10:14:28.025Z,3.30
2017-12-13T10:15:32.199Z,4.07
2017-12-13T10:16:36.413Z,6.28
2017-12-13T10:17:40.873Z,7.43
2017-12-13T10:18:45.221Z,4.80
2017-12-13T10:19:49.484Z,3.45
2017-12-13T10:20:54.454Z,3.60
2017-12-13T10:21:58.778Z,3.80
2017-12-13T10:23:02.984Z,3.92
2017-12-13T10:24:07.155Z,3.50
2017-12-13T10:25:11.434Z,3.40
2017-12-13T10:26:16.409Z,3.70
2017-12-13T10:27:20.670Z,5.03
2017-12-13T10:28:24.804Z,7.05
2017-12-13T10:29:29.023Z,8.80
2017-12-13T10:30:33.317Z,5.20
2017-12-13T10:31:37.534Z,4.78
2017-12-13T10:32:41.787Z,3.80
2017-12-13T10:33:46.774Z,4.43
2017-12-13T10:34:51.079Z,4.20
2017-12-13T10:35:56.376Z,3.40
2017-12-13T10:37:00.610Z,3.33
2017-12-13T10:38:04.925Z,2.90
2017-12-13T10:39:09.207Z,3.45
2017-12-13T10:40:13.430Z,17.23
2017-12-13T10:41:17.509Z,20.12
2017-12-13T10:42:21.668Z,4.22
2017-12-13T10:43:27.134Z,3.40
2017-12-13T10:44:31.151Z,3.28
2017-12-13T10:45:35.344Z,3.15
2017-12-13T10:46:39.403Z,3.08
2017-12-13T10:47:43.526Z,3.03
2017-12-13T10:48:47.522Z,2.25
2017-12-13T10:49:53.963Z,2.60
2017-12-13T10:51:00.257Z,2.40
2017-12-13T10:52:07.687Z,1.80
2017-12-13T10:53:12.035Z,2.22
2017-12-13T10:54:16.277Z,1.90
2017-12-13T10:55:20.965Z,1.70
2017-12-13T10:56:25.195Z,1.70
2017-12-13T10:57:29.377Z,2.10
2017-12-13T10:58:33.615Z,2.00
2017-12-13T10:59:39.766Z,2.00
2017-12-13T11:00:45.958Z,2.40
2017-12-13T11:01:51.096Z,2.45
2017-12-13T11:02:56.121Z,2.00
2017-12-13T11:04:00.463Z,2.40
2017-12-13T11:05:05.941Z,17.75
2017-12-13T11:07:29.813Z,1.30
2017-12-13T11:08:34.109Z,1.00
2017-12-13T11:09:40.065Z,1.00
2017-12-13T11:10:45.126Z,1.10
2017-12-13T11:11:49.669Z,1.10
2017-12-13T11:12:54.299Z,0.80
2017-12-13T11:13:58.422Z,1.00
2017-12-13T11:15:03.310Z,1.48
2017-12-13T11:16:07.428Z,9.32
2017-12-13T11:17:11.410Z,2.80
2017-12-13T11:18:15.959Z,1.40
2017-12-13T11:19:20.811Z,1.30
2017-12-13T11:20:25.043Z,1.05
2017-12-13T11:21:29.045Z,1.10
2017-12-13T11:22:33.318Z,1.48
2017-12-13T11:23:37.751Z,1.20
2017-12-13T11:25:54.249Z,1.95
2017-12-13T11:27:02.074Z,1.70
2017-12-13T11:28:06.595Z,1.75
2017-12-13T11:29:12.390Z,1.87
2017-12-13T11:30:16.472Z,1.92
2017-12-13T11:31:20.613Z,2.17
2017-12-13T11:32:24.719Z,2.60
2017-12-13T11:33:29.528Z,2.20
2017-12-13T11:34:33.639Z,1.90
2017-12-13T11:35:37.661Z,1.80
2017-12-13T11:36:42.485Z,1.20
2017-12-13T11:37:48.110Z,1.20
2017-12-13T11:38:52.273Z,1.10
2017-12-13T11:39:56.476Z,1.70
2017-12-13T11:41:00.821Z,2.33
2017-12-13T11:42:05.016Z,1.87
2017-12-13T11:43:09.273Z,3.17
2017-12-13T11:44:13.862Z,4.15
2017-12-13T11:45:18.940Z,5.60
2017-12-13T11:46:23.566Z,3.00
2017-12-13T11:47:28.146Z,3.03
2017-12-13T11:48:32.706Z,3.08
2017-12-13T11:49:37.014Z,3.42
2017-12-13T11:50:41.743Z,2.10
2017-12-13T11:51:46.797Z,2.62
2017-12-13T11:52:52.223Z,2.17
2017-12-13T11:53:57.243Z,2.92
2017-12-13T11:55:03.107Z,1.48
2017-12-13T11:56:07.351Z,2.00
2017-12-13T11:57:11.570Z,1.90
2017-12-13T11:58:16.149Z,3.50
2017-12-13T11:59:20.472Z,6.20
2017-12-13T12:00:28.634Z,10.73
2017-12-13T12:01:33.073Z,2.30
2017-12-13T12:02:37.489Z,1.30
2017-12-13T12:03:44.908Z,1.12
2017-12-13T12:04:52.556Z,1.42
2017-12-13T12:06:04.239Z,1.25
2017-12-13T12:07:09.913Z,1.10
2017-12-13T12:08:15.405Z,1.10
2017-12-13T12:09:19.488Z,0.90
2017-12-13T12:10:23.608Z,1.20
2017-12-13T12:11:28.070Z,1.20
2017-12-13T12:12:33.014Z,1.10
2017-12-13T12:13:37.247Z,1.05
2017-12-13T12:14:41.454Z,1.20
2017-12-13T12:15:45.765Z,1.00
2017-12-13T12:16:50.085Z,1.00
2017-12-13T12:17:54.416Z,1.23
2017-12-13T12:18:59.478Z,1.35
2017-12-13T12:20:03.735Z,32.20
2017-12-13T12:21:08.064Z,4.75
2017-12-13T12:22:13.344Z,1.20
2017-12-13T12:23:18.387Z,1.20
2017-12-13T12:24:23.756Z,0.90
2017-12-13T12:25:29.098Z,1.58
2017-12-13T12:26:34.664Z,1.00
2017-12-13T12:27:46.085Z,0.77
2017-12-13T12:28:52.997Z,0.73
2017-12-13T12:30:01.022Z,0.80
2017-12-13T12:31:07.813Z,0.82
2017-12-13T12:32:12.645Z,0.90
2017-12-13T12:33:16.846Z,0.88
2017-12-13T12:34:21.975Z,0.95
2017-12-13T12:35:27.202Z,1.00
2017-12-13T12:36:31.409Z,0.90
2017-12-13T12:37:36.362Z,0.80
2017-12-13T12:38:40.491Z,0.70
2017-12-13T12:39:44.656Z,0.60
2017-12-13T12:40:49.033Z,0.70
2017-12-13T12:41:54.028Z,0.70
2017-12-13T12:42:58.208Z,0.80
2017-12-13T12:44:02.406Z,2.83
2017-12-13T12:45:07.061Z,6.85
2017-12-13T12:46:11.503Z,1.70
2017-12-13T12:47:16.078Z,1.10
2017-12-13T12:48:20.130Z,3.15
2017-12-13T12:49:24.318Z,1.55
2017-12-13T12:50:29.390Z,0.70
2017-12-13T12:51:33.688Z,0.70
2017-12-13T12:52:38.152Z,0.70
2017-12-13T12:53:43.986Z,0.60
2017-12-13T12:54:49.440Z,0.68
2017-12-13T12:56:18.740Z,0.50
2017-12-13T12:57:23.097Z,0.65
2017-12-13T12:58:27.438Z,0.60
2017-12-13T12:59:32.274Z,0.50
2017-12-13T13:00:36.803Z,0.60
2017-12-13T13:01:40.827Z,0.65
2017-12-13T13:02:45.176Z,0.60
2017-12-13T13:03:50.903Z,0.60
2017-12-13T13:04:55.906Z,0.70
2017-12-13T13:06:00.311Z,0.55
2017-12-13T13:07:04.983Z,0.60
2017-12-13T13:08:09.543Z,0.70
2017-12-13T13:09:15.656Z,0.60
2017-12-13T13:10:21.224Z,0.70
2017-12-13T13:11:26.300Z,0.70
2017-12-13T13:12:31.236Z,0.70
2017-12-13T13:13:35.799Z,0.70
2017-12-13T13:14:39.897Z,2.60
2017-12-13T13:15:44.043Z,7.65
2017-12-13T13:16:49.020Z,0.98
2017-12-13T13:17:53.111Z,0.70
2017-12-13T13:18:57.260Z,0.70
2017-12-13T13:20:02.359Z,0.60
2017-12-13T13:21:06.449Z,0.60
2017-12-13T13:22:10.554Z,0.60
2017-12-13T13:23:14.697Z,0.70
2017-12-13T13:24:18.766Z,0.60
2017-12-13T13:25:22.836Z,0.60
2017-12-13T13:26:27.111Z,0.70
2017-12-13T13:27:32.403Z,0.80
2017-12-13T13:28:37.020Z,0.60
2017-12-13T13:29:41.266Z,0.60
2017-12-13T13:30:46.382Z,0.70
2017-12-13T13:31:51.450Z,0.80
2017-12-13T13:32:56.176Z,0.60
2017-12-13T13:34:00.624Z,0.68
2017-12-13T13:35:05.260Z,0.62
2017-12-13T13:36:10.399Z,1.93
2017-12-13T13:37:14.769Z,1.75
2017-12-13T13:38:19.397Z,0.60
2017-12-13T13:39:23.608Z,0.60
2017-12-13T13:40:28.661Z,0.80
2017-12-13T13:41:33.018Z,0.60
2017-12-13T13:42:37.378Z,0.50
2017-12-13T13:43:41.726Z,0.60
2017-12-13T13:44:46.064Z,0.60
2017-12-13T13:45:50.400Z,0.68
2017-12-13T13:46:54.674Z,0.70
2017-12-13T13:47:58.914Z,0.70
2017-12-13T13:49:03.277Z,0.70
2017-12-13T13:50:08.873Z,0.60
2017-12-13T13:51:13.626Z,0.60
2017-12-13T13:52:18.073Z,0.80
2017-12-13T13:53:22.534Z,0.60
2017-12-13T13:54:27.359Z,0.70
2017-12-13T13:55:32.373Z,0.60
2017-12-13T13:56:36.612Z,0.60
2017-12-13T13:57:41.708Z,0.70
2017-12-13T13:58:45.968Z,0.60
2017-12-13T13:59:50.536Z,0.70
2017-12-13T14:00:54.779Z,0.70
2017-12-13T14:02:00.162Z,0.60
2017-12-13T14:03:05.123Z,9.48
2017-12-13T14:04:10.472Z,4.20
2017-12-13T14:05:15.397Z,0.70
2017-12-13T14:06:19.493Z,0.60
2017-12-13T14:07:24.391Z,0.60
2017-12-13T14:08:28.436Z,0.60
2017-12-13T14:09:32.531Z,0.50
2017-12-13T14:10:36.650Z,0.70
2017-12-13T14:11:40.850Z,0.60
2017-12-13T14:12:45.058Z,0.90
2017-12-13T14:13:49.544Z,1.75
2017-12-13T14:14:53.729Z,1.58
2017-12-13T14:15:58.576Z,1.10
2017-12-13T14:17:03.324Z,1.50
2017-12-13T14:18:07.377Z,0.80
2017-12-13T14:19:12.273Z,0.60
2017-12-13T14:20:16.871Z,0.88
2017-12-13T14:21:21.652Z,0.60
2017-12-13T14:22:26.719Z,0.65
2017-12-13T14:23:32.010Z,1.95
2017-12-13T14:24:36.265Z,1.20
2017-12-13T14:25:40.535Z,0.60
2017-12-13T14:26:44.594Z,0.60
2017-12-13T14:27:49.432Z,0.60